aviador You're here:

KCDC Decoded Metar

CEDAR CITY in UT, USA
Report Time2018-05-27 00:53:00
UTC Time2018-05-27 01:15:11
Flight Rules vfr VFR
Wind230° at 14 kt
W.Decomp.*RWY 20: 13.5 kt HW 3.9 kt RCW
RWY 26: 10.1 kt HW 9.7 kt LCW
W.Rank230° ranks 5
Current wind is above 230° avg. (9.6)
Visibility9999 m
Phenomena:N/A
Clouds:N/A
Expected CloudBase > 10,400 ft AGL from Temp-Dew spread
CeilingNone
Temp20°C (ISA +16)
Dew Point-6°C (17% RH)
AAT12.3°C
QNH1010 hPa
Density Alt7,638 ft
Elevation5,623 ft
Report Wrong Elevation
Raw Report
KCDC 270053Z AUTO 23014KT 10SM CLR 20/M06 A2983 RMK AO2 SLP047
T02001061=

Extra information for KCDC:More info

Metar Taf Metar & Taf Last 4 Metars F.Rules Stats Wind Profile Meteogram Temp Stats Airport Information Weather charts Add Link Nearby VenuesMetar ALERT Operation Metar Decoded Social comments

AIRNAV info for KCDC